Time;durP1;ratioP1;P1;durP2;ratioP2;P2;SDS_P1;SDS_P2;PMS_P1;PMS_P2;Temp;Humidity;BMP_temperature;BMP_pressure;BME280_temperature;BME280_humidity;BME280_pressure;Samples;Min_cycle;Max_cycle;Signal;HPM_P1;HPM_P2
2021/03/24 00:01:31;;;;;;;42.30;17.60;;;;;;;;;;5013057;28;20053;-70
2021/03/24 00:04:00;;;;;;;48.17;18.85;;;;;;;;;;5010700;28;20087;-69
2021/03/24 00:06:28;;;;;;;37.35;15.77;;;;;;;;;;5006252;28;21008;-68
2021/03/24 00:08:56;;;;;;;45.13;17.73;;;;;;;;;;5006451;28;20085;-70
2021/03/24 00:11:26;;;;;;;44.75;18.67;;;;;;;;;;5011019;28;20504;-69
2021/03/24 00:13:57;;;;;;;50.13;19.02;;;;;;;;;;5005726;28;20033;-68
2021/03/24 00:16:25;;;;;;;45.13;16.88;;;;;;;;;;5005848;28;20029;-69
2021/03/24 00:18:50;;;;;;;49.80;17.52;;;;;;;;;;5007030;28;20153;-68
2021/03/24 00:21:17;;;;;;;45.28;18.77;;;;;;;;;;4980137;28;20095;-69
2021/03/24 00:23:42;;;;;;;46.13;17.60;;;;;;;;;;5005642;28;20036;-68
2021/03/24 00:26:10;;;;;;;54.92;19.40;;;;;;;;;;5008370;28;20635;-70
2021/03/24 00:28:36;;;;;;;43.58;18.92;;;;;;;;;;5011238;28;20042;-69
2021/03/24 00:31:06;;;;;;;48.40;18.23;;;;;;;;;;5013958;28;20040;-69
2021/03/24 00:33:34;;;;;;;51.75;19.48;;;;;;;;;;5012447;28;20037;-68
2021/03/24 00:36:02;;;;;;;43.75;19.90;;;;;;;;;;5003560;28;20041;-69
2021/03/24 00:38:30;;;;;;;49.15;19.40;;;;;;;;;;4986516;28;20040;-68
2021/03/24 00:40:57;;;;;;;61.33;21.17;;;;;;;;;;5008431;28;20457;-71
2021/03/24 00:43:26;;;;;;;48.22;19.20;;;;;;;;;;5005752;28;20029;-68
2021/03/24 00:45:54;;;;;;;50.30;21.00;;;;;;;;;;5005549;28;20032;-69
2021/03/24 00:48:29;;;;;;;51.53;20.08;;;;;;;;;;4975473;28;20076;-68
2021/03/24 00:50:56;;;;;;;48.40;19.67;;;;;;;;;;5007446;28;20029;-69
2021/03/24 00:53:22;;;;;;;50.42;19.30;;;;;;;;;;5010054;28;20040;-69
2021/03/24 00:55:50;;;;;;;49.97;19.88;;;;;;;;;;5010196;28;20033;-69
2021/03/24 00:58:17;;;;;;;49.83;20.25;;;;;;;;;;4995871;28;20041;-69
2021/03/24 01:00:45;;;;;;;54.50;20.20;;;;;;;;;;5013459;28;20033;-69
2021/03/24 01:03:11;;;;;;;49.78;18.92;;;;;;;;;;5017594;28;20110;-69
2021/03/24 01:05:37;;;;;;;55.38;19.80;;;;;;;;;;5009632;28;20181;-70
2021/03/24 01:08:05;;;;;;;55.05;22.27;;;;;;;;;;5010264;28;20036;-69
2021/03/24 01:10:33;;;;;;;49.53;19.88;;;;;;;;;;5009335;28;20043;-70
2021/03/24 01:13:02;;;;;;;51.15;18.70;;;;;;;;;;5007382;28;21050;-69
2021/03/24 01:15:27;;;;;;;53.47;20.27;;;;;;;;;;5005570;28;20022;-70
2021/03/24 01:17:53;;;;;;;54.67;19.65;;;;;;;;;;4988967;28;20037;-68
2021/03/24 01:20:25;;;;;;;46.28;20.50;;;;;;;;;;5008286;28;20661;-68
2021/03/24 01:22:50;;;;;;;49.50;18.75;;;;;;;;;;4995815;28;22146;-68
2021/03/24 01:25:17;;;;;;;49.22;19.98;;;;;;;;;;5008928;28;20122;-69
2021/03/24 01:27:44;;;;;;;45.47;19.10;;;;;;;;;;5007861;28;20053;-69
2021/03/24 01:30:17;;;;;;;49.95;20.35;;;;;;;;;;5020050;28;20972;-68
2021/03/24 01:32:45;;;;;;;50.38;18.95;;;;;;;;;;5015812;28;20163;-69
2021/03/24 01:35:10;;;;;;;51.83;19.10;;;;;;;;;;4979351;28;20306;-69
2021/03/24 01:37:43;;;;;;;48.85;18.45;;;;;;;;;;4992806;28;20033;-69
2021/03/24 01:40:15;;;;;;;55.17;20.77;;;;;;;;;;4990165;28;20036;-69
2021/03/24 01:42:43;;;;;;;50.85;19.50;;;;;;;;;;5010381;28;20044;-70
2021/03/24 01:45:15;;;;;;;56.70;22.27;;;;;;;;;;5008714;28;20045;-68
2021/03/24 01:47:43;;;;;;;64.60;23.10;;;;;;;;;;5010236;28;21361;-70
2021/03/24 01:50:18;;;;;;;60.67;21.88;;;;;;;;;;5008467;28;20096;-69
2021/03/24 01:52:43;;;;;;;53.25;21.35;;;;;;;;;;5006924;28;20072;-69
2021/03/24 01:55:09;;;;;;;61.92;22.38;;;;;;;;;;5009175;28;20103;-68
2021/03/24 01:57:37;;;;;;;58.90;21.25;;;;;;;;;;5001597;28;20029;-69
2021/03/24 02:00:12;;;;;;;49.13;20.63;;;;;;;;;;5012213;28;20136;-69
2021/03/24 02:02:42;;;;;;;57.83;21.25;;;;;;;;;;5013495;28;20108;-69
2021/03/24 02:05:12;;;;;;;63.83;20.50;;;;;;;;;;4983166;28;21984;-70
2021/03/24 02:07:47;;;;;;;55.72;20.55;;;;;;;;;;5003644;28;20041;-69
2021/03/24 02:10:31;;;;;;;61.60;22.80;;;;;;;;;;4996034;28;20040;-69
2021/03/24 02:13:00;;;;;;;63.00;22.25;;;;;;;;;;5005746;28;20041;-70
2021/03/24 02:15:29;;;;;;;50.72;21.80;;;;;;;;;;5017481;28;20042;-68
2021/03/24 02:17:58;;;;;;;55.65;21.08;;;;;;;;;;5011112;28;20021;-68
2021/03/24 02:20:23;;;;;;;56.45;22.25;;;;;;;;;;4992733;28;20492;-69
2021/03/24 02:22:52;;;;;;;59.90;22.65;;;;;;;;;;5013694;28;20033;-69
2021/03/24 02:25:32;;;;;;;60.45;23.92;;;;;;;;;;5004630;28;20105;-68
2021/03/24 02:28:02;;;;;;;54.78;21.13;;;;;;;;;;5009721;28;20594;-68
2021/03/24 02:30:35;;;;;;;65.82;23.50;;;;;;;;;;5015469;28;20329;-68
2021/03/24 02:33:05;;;;;;;52.25;21.48;;;;;;;;;;5021443;28;20029;-69
2021/03/24 02:35:32;;;;;;;64.80;24.02;;;;;;;;;;5005620;28;20087;-68
2021/03/24 02:38:02;;;;;;;58.10;21.48;;;;;;;;;;4995302;28;20036;-68
2021/03/24 02:40:28;;;;;;;60.80;23.02;;;;;;;;;;5011095;28;20124;-69
2021/03/24 02:42:54;;;;;;;62.97;23.98;;;;;;;;;;4992214;28;20156;-69
2021/03/24 02:45:27;;;;;;;61.22;22.92;;;;;;;;;;5004547;28;20605;-69
2021/03/24 02:47:57;;;;;;;70.80;24.52;;;;;;;;;;4990437;28;20176;-69
2021/03/24 02:50:30;;;;;;;53.33;23.42;;;;;;;;;;4993787;28;20038;-69
2021/03/24 02:52:56;;;;;;;55.30;22.95;;;;;;;;;;5005144;28;20079;-69
2021/03/24 02:55:23;;;;;;;60.83;22.45;;;;;;;;;;5010295;28;20022;-69
2021/03/24 02:57:49;;;;;;;63.60;23.70;;;;;;;;;;5009784;28;20564;-69
2021/03/24 03:00:19;;;;;;;57.45;23.15;;;;;;;;;;5012110;28;20033;-69
2021/03/24 03:02:51;;;;;;;58.85;21.48;;;;;;;;;;4996790;28;20536;-68
2021/03/24 03:05:21;;;;;;;62.05;23.75;;;;;;;;;;5006113;28;20103;-69
2021/03/24 03:07:51;;;;;;;59.83;23.65;;;;;;;;;;4992533;28;20110;-70
2021/03/24 03:10:37;;;;;;;57.65;23.88;;;;;;;;;;5002001;28;20043;-68
2021/03/24 03:13:15;;;;;;;68.13;24.30;;;;;;;;;;5003739;28;20036;-70
2021/03/24 03:16:00;;;;;;;63.60;24.17;;;;;;;;;;5003877;28;20037;-69
2021/03/24 03:18:26;;;;;;;;;;;;;;;;;;5005840;28;20032;-68
2021/03/24 03:20:53;;;;;;;59.10;22.50;;;;;;;;;;5008236;28;19967;-70
2021/03/24 03:23:27;;;;;;;59.50;22.65;;;;;;;;;;5007088;28;20046;-70
2021/03/24 03:26:04;;;;;;;62.88;23.15;;;;;;;;;;5005172;28;20248;-69
2021/03/24 03:28:34;;;;;;;59.15;23.58;;;;;;;;;;4994527;28;20053;-69
2021/03/24 03:31:00;;;;;;;59.90;24.17;;;;;;;;;;4999805;28;21125;-69
2021/03/24 03:33:28;;;;;;;61.58;25.90;;;;;;;;;;5015648;28;20037;-68
2021/03/24 03:35:54;;;;;;;61.33;24.20;;;;;;;;;;5009231;28;20036;-67
2021/03/24 03:38:22;;;;;;;60.47;25.00;;;;;;;;;;5007205;28;20033;-70
2021/03/24 03:40:52;;;;;;;60.42;22.50;;;;;;;;;;5001915;28;21678;-69
2021/03/24 03:43:21;;;;;;;56.60;22.77;;;;;;;;;;5005897;28;20784;-68
2021/03/24 03:45:54;;;;;;;61.55;24.27;;;;;;;;;;5007438;28;20035;-69
2021/03/24 03:48:22;;;;;;;60.60;23.05;;;;;;;;;;5004922;28;20033;-70
2021/03/24 03:51:00;;;;;;;64.15;24.20;;;;;;;;;;5007489;28;20037;-68
2021/03/24 03:53:44;;;;;;;57.45;24.15;;;;;;;;;;5006645;28;20233;-70
2021/03/24 03:56:14;;;;;;;58.47;23.42;;;;;;;;;;5007559;28;20053;-69
2021/03/24 03:58:54;;;;;;;61.33;23.08;;;;;;;;;;5013508;28;22088;-68
2021/03/24 04:01:24;;;;;;;70.43;25.17;;;;;;;;;;5015089;28;20040;-68
2021/03/24 04:03:55;;;;;;;67.00;24.08;;;;;;;;;;5012311;28;20024;-69
2021/03/24 04:06:27;;;;;;;62.83;23.08;;;;;;;;;;5005183;28;20760;-69
2021/03/24 04:08:53;;;;;;;63.08;23.98;;;;;;;;;;5006612;28;20041;-68
2021/03/24 04:11:22;;;;;;;66.03;24.80;;;;;;;;;;5004471;28;20364;-68
2021/03/24 04:13:54;;;;;;;65.13;25.25;;;;;;;;;;5007796;28;20500;-69
2021/03/24 04:16:24;;;;;;;67.50;25.33;;;;;;;;;;4990606;28;20025;-68
2021/03/24 04:18:57;;;;;;;71.10;25.67;;;;;;;;;;5005049;28;20086;-69
2021/03/24 04:21:27;;;;;;;63.13;24.35;;;;;;;;;;5006055;28;21898;-69
2021/03/24 04:23:56;;;;;;;73.38;24.42;;;;;;;;;;5000802;28;20044;-69
2021/03/24 04:26:26;;;;;;;68.03;26.20;;;;;;;;;;5014784;28;20159;-69
2021/03/24 04:29:03;;;;;;;60.95;23.55;;;;;;;;;;5012971;28;20267;-67
2021/03/24 04:31:29;;;;;;;68.45;25.67;;;;;;;;;;5018645;28;20026;-69
2021/03/24 04:33:57;;;;;;;70.78;25.73;;;;;;;;;;5004797;28;20041;-70
2021/03/24 04:36:26;;;;;;;79.68;29.25;;;;;;;;;;5008725;28;20021;-69
2021/03/24 04:38:56;;;;;;;57.38;23.75;;;;;;;;;;5010645;28;20153;-72
2021/03/24 04:41:31;;;;;;;73.28;24.40;;;;;;;;;;5011236;28;20037;-69
2021/03/24 04:44:00;;;;;;;73.47;25.98;;;;;;;;;;4995655;28;20043;-69
2021/03/24 04:46:32;;;;;;;67.03;24.77;;;;;;;;;;5011062;28;20107;-70
2021/03/24 04:49:05;;;;;;;68.05;25.85;;;;;;;;;;5012044;28;20037;-69
2021/03/24 04:51:32;;;;;;;69.57;26.98;;;;;;;;;;5012227;28;20040;-69
2021/03/24 04:54:07;;;;;;;73.32;26.52;;;;;;;;;;5009218;28;20037;-69
2021/03/24 04:56:35;;;;;;;;;;;;;;;;;;5017676;28;20026;-69
2021/03/24 04:59:01;;;;;;;66.38;25.20;;;;;;;;;;5014551;28;19925;-69
2021/03/24 05:01:40;;;;;;;78.25;27.58;;;;;;;;;;5015989;28;20584;-69
2021/03/24 05:04:08;;;;;;;65.07;25.45;;;;;;;;;;5015234;28;20052;-69
2021/03/24 05:06:40;;;;;;;59.35;24.70;;;;;;;;;;5006382;28;20033;-69
2021/03/24 05:09:07;;;;;;;77.05;29.15;;;;;;;;;;5011425;28;20048;-69
2021/03/24 05:11:38;;;;;;;76.72;27.02;;;;;;;;;;5011503;28;20041;-69
2021/03/24 05:14:20;;;;;;;81.97;27.88;;;;;;;;;;4995614;28;20034;-69
2021/03/24 05:16:49;;;;;;;87.97;29.60;;;;;;;;;;5010751;28;20025;-70
2021/03/24 05:19:22;;;;;;;83.80;29.67;;;;;;;;;;5010113;28;20041;-69
2021/03/24 05:21:56;;;;;;;81.60;29.50;;;;;;;;;;5003603;28;21027;-69
2021/03/24 05:24:30;;;;;;;78.25;28.02;;;;;;;;;;5009722;28;20090;-69
2021/03/24 05:27:03;;;;;;;91.28;30.10;;;;;;;;;;5006805;28;20028;-69
2021/03/24 05:29:33;;;;;;;72.15;26.98;;;;;;;;;;5013406;28;20053;-70
2021/03/24 05:31:59;;;;;;;77.45;26.52;;;;;;;;;;5017583;28;20037;-69
2021/03/24 05:34:28;;;;;;;74.53;26.38;;;;;;;;;;5015414;28;20032;-70
2021/03/24 05:36:54;;;;;;;86.75;30.33;;;;;;;;;;4990985;28;21982;-70
2021/03/24 05:39:27;;;;;;;79.53;27.83;;;;;;;;;;5010240;28;20041;-71
2021/03/24 05:42:04;;;;;;;71.78;26.65;;;;;;;;;;4998924;28;20024;-69
2021/03/24 05:44:33;;;;;;;77.28;27.25;;;;;;;;;;4989895;28;22090;-69
2021/03/24 05:47:14;;;;;;;72.32;28.05;;;;;;;;;;5010516;28;20103;-69
2021/03/24 05:49:46;;;;;;;66.20;26.92;;;;;;;;;;5005196;28;20252;-70
2021/03/24 05:52:27;;;;;;;82.03;28.80;;;;;;;;;;4991057;28;20045;-69
2021/03/24 05:54:53;;;;;;;69.35;26.08;;;;;;;;;;5007191;28;20040;-70
2021/03/24 05:57:26;;;;;;;79.25;28.50;;;;;;;;;;5001066;28;20033;-70
2021/03/24 06:00:19;;;;;;;86.78;29.73;;;;;;;;;;5020553;28;20068;-69
2021/03/24 06:02:51;;;;;;;83.70;28.05;;;;;;;;;;5007421;28;20064;-70
2021/03/24 06:05:21;;;;;;;85.18;28.65;;;;;;;;;;5008982;28;20101;-68
2021/03/24 06:08:02;;;;;;;77.53;29.25;;;;;;;;;;5020084;28;20030;-68
2021/03/24 06:10:28;;;;;;;87.28;28.45;;;;;;;;;;5014491;28;20036;-68
2021/03/24 06:13:08;;;;;;;73.82;27.40;;;;;;;;;;5012844;28;20091;-68
2021/03/24 06:15:36;;;;;;;74.43;25.98;;;;;;;;;;5017654;28;20160;-68
2021/03/24 06:18:23;;;;;;;75.82;27.50;;;;;;;;;;5019511;28;20029;-70
2021/03/24 06:21:00;;;;;;;67.50;25.83;;;;;;;;;;5015250;28;20037;-70
2021/03/24 06:23:28;;;;;;;75.45;28.52;;;;;;;;;;5015682;28;20088;-68
2021/03/24 06:26:09;;;;;;;68.22;26.20;;;;;;;;;;5016246;28;20714;-69
2021/03/24 06:28:53;;;;;;;68.53;27.40;;;;;;;;;;5020151;28;20549;-69
2021/03/24 06:31:33;;;;;;;60.03;25.23;;;;;;;;;;4999942;28;20851;-68
2021/03/24 06:34:10;;;;;;;67.95;25.42;;;;;;;;;;5016131;28;20652;-69
2021/03/24 06:37:11;;;;;;;62.78;26.05;;;;;;;;;;5019832;28;20057;-68
2021/03/24 06:39:58;;;;;;;60.88;25.83;;;;;;;;;;4997069;28;20041;-69
2021/03/24 06:42:27;;;;;;;62.67;23.65;;;;;;;;;;5018980;28;20645;-68
2021/03/24 06:45:11;;;;;;;63.25;25.85;;;;;;;;;;5014859;28;20033;-70
2021/03/24 06:47:37;;;;;;;68.05;28.27;;;;;;;;;;5015978;28;20045;-68
2021/03/24 06:50:24;;;;;;;63.05;26.27;;;;;;;;;;5000556;28;20033;-71
2021/03/24 06:53:08;;;;;;;69.13;27.88;;;;;;;;;;5017576;28;20099;-68
2021/03/24 06:55:40;;;;;;;71.10;30.02;;;;;;;;;;5018474;28;20037;-68
2021/03/24 06:58:14;;;;;;;64.63;27.35;;;;;;;;;;5016775;28;20559;-68
2021/03/24 07:00:58;;;;;;;65.68;26.90;;;;;;;;;;5017136;28;20059;-68
2021/03/24 07:03:37;;;;;;;63.13;27.90;;;;;;;;;;5016566;28;20028;-69
2021/03/24 07:06:09;;;;;;;67.13;28.00;;;;;;;;;;5014821;28;20087;-67
2021/03/24 07:08:53;;;;;;;59.20;28.23;;;;;;;;;;5002360;28;20041;-70
2021/03/24 07:11:24;;;;;;;63.63;27.15;;;;;;;;;;4999345;28;20038;-69
2021/03/24 07:13:59;;;;;;;66.53;27.98;;;;;;;;;;5022071;28;20063;-69
2021/03/24 07:16:30;;;;;;;74.55;28.52;;;;;;;;;;5018730;28;20033;-72
2021/03/24 07:19:17;;;;;;;65.50;27.73;;;;;;;;;;4997220;28;20736;-69
2021/03/24 07:21:45;;;;;;;59.00;26.10;;;;;;;;;;5005046;28;20086;-69
2021/03/24 07:24:29;;;;;;;61.00;26.55;;;;;;;;;;5012921;28;20175;-71
2021/03/24 07:27:03;;;;;;;60.75;27.55;;;;;;;;;;5015122;28;20079;-70
2021/03/24 07:29:32;;;;;;;57.88;26.00;;;;;;;;;;4998228;28;20069;-70
2021/03/24 07:32:00;;;;;;;54.97;27.50;;;;;;;;;;5019752;28;20457;-70
2021/03/24 07:34:36;;;;;;;57.05;24.73;;;;;;;;;;5015614;28;20060;-70
2021/03/24 07:37:05;;;;;;;55.13;24.88;;;;;;;;;;5014011;28;20147;-70
2021/03/24 07:39:49;;;;;;;57.80;25.75;;;;;;;;;;5016718;28;20026;-70
2021/03/24 07:42:14;;;;;;;53.93;24.63;;;;;;;;;;5014239;28;21218;-69
2021/03/24 07:44:45;;;;;;;52.55;25.42;;;;;;;;;;5017348;28;20292;-69
2021/03/24 07:47:17;;;;;;;52.72;24.30;;;;;;;;;;5014954;28;20060;-68
2021/03/24 07:50:06;;;;;;;52.03;24.70;;;;;;;;;;4999331;28;20040;-68
2021/03/24 07:52:50;;;;;;;50.70;24.58;;;;;;;;;;5019545;28;20087;-68
2021/03/24 07:55:31;;;;;;;57.90;25.43;;;;;;;;;;5017194;28;20466;-69
2021/03/24 07:58:15;;;;;;;52.65;23.90;;;;;;;;;;5015282;28;20287;-68
2021/03/24 08:01:01;;;;;;;55.30;24.75;;;;;;;;;;5018975;28;20068;-68
2021/03/24 08:03:29;;;;;;;55.75;25.83;;;;;;;;;;4981165;28;21690;-68
2021/03/24 08:06:16;;;;;;;48.70;24.52;;;;;;;;;;5013125;28;20045;-69
2021/03/24 08:08:52;;;;;;;48.65;23.67;;;;;;;;;;5015840;28;20071;-69
2021/03/24 08:11:28;;;;;;;54.33;24.50;;;;;;;;;;5017856;28;20046;-69
2021/03/24 08:14:19;;;;;;;54.05;24.48;;;;;;;;;;5005004;28;22081;-69
2021/03/24 08:16:45;;;;;;;55.55;25.33;;;;;;;;;;5000003;28;20091;-69
2021/03/24 08:19:29;;;;;;;53.03;25.05;;;;;;;;;;5014515;28;21996;-69
2021/03/24 08:22:01;;;;;;;54.42;25.35;;;;;;;;;;5018477;28;20065;-70
2021/03/24 08:24:38;;;;;;;47.50;23.67;;;;;;;;;;5014876;28;20461;-70
2021/03/24 08:27:23;;;;;;;53.03;24.42;;;;;;;;;;5018388;28;20025;-66
2021/03/24 08:30:11;;;;;;;46.22;23.42;;;;;;;;;;5014009;28;20538;-68
2021/03/24 08:32:49;;;;;;;53.25;23.10;;;;;;;;;;5016145;28;20028;-68
2021/03/24 08:35:26;;;;;;;49.88;23.50;;;;;;;;;;5016969;28;20112;-68
2021/03/24 08:38:10;;;;;;;47.65;22.70;;;;;;;;;;5013062;28;21455;-70
2021/03/24 08:40:41;;;;;;;46.33;23.60;;;;;;;;;;5016094;28;20036;-70
2021/03/24 08:43:12;;;;;;;48.15;23.65;;;;;;;;;;5013576;28;20037;-69
2021/03/24 08:45:43;;;;;;;49.55;23.65;;;;;;;;;;5001798;28;20103;-72
2021/03/24 08:48:16;;;;;;;49.33;24.48;;;;;;;;;;5022242;28;20033;-68
2021/03/24 08:50:50;;;;;;;46.20;23.67;;;;;;;;;;5019936;28;20037;-69
2021/03/24 08:53:39;;;;;;;47.63;24.80;;;;;;;;;;5000575;28;20590;-67
2021/03/24 08:56:26;;;;;;;48.97;23.10;;;;;;;;;;5016075;28;20250;-68
2021/03/24 08:59:09;;;;;;;58.60;24.00;;;;;;;;;;5011843;28;20102;-67
2021/03/24 09:01:45;;;;;;;54.97;24.93;;;;;;;;;;5016120;28;20555;-70
2021/03/24 09:04:40;;;;;;;45.72;24.05;;;;;;;;;;5016105;28;20425;-68
2021/03/24 09:07:31;;;;;;;50.63;23.75;;;;;;;;;;5016666;28;20052;-69
2021/03/24 09:10:12;;;;;;;49.83;24.00;;;;;;;;;;4997228;28;20060;-70
2021/03/24 09:12:47;;;;;;;53.53;25.38;;;;;;;;;;5023859;28;20907;-68
2021/03/24 09:15:22;;;;;;;48.95;23.42;;;;;;;;;;5023383;28;20109;-68
2021/03/24 09:17:55;;;;;;;47.10;23.33;;;;;;;;;;5009307;28;20044;-68
2021/03/24 09:20:29;;;;;;;48.83;24.77;;;;;;;;;;5020155;28;20029;-69
2021/03/24 09:22:56;;;;;;;44.95;21.92;;;;;;;;;;5018870;28;20405;-69
2021/03/24 09:25:29;;;;;;;41.35;22.25;;;;;;;;;;5021233;28;20033;-69
2021/03/24 09:28:07;;;;;;;45.58;21.73;;;;;;;;;;5019560;28;20032;-69
2021/03/24 09:30:39;;;;;;;43.55;22.25;;;;;;;;;;5019426;28;20041;-69
2021/03/24 09:33:23;;;;;;;45.70;22.15;;;;;;;;;;5018020;28;20033;-68
2021/03/24 09:36:05;;;;;;;42.65;21.88;;;;;;;;;;5018856;28;20933;-69
2021/03/24 09:38:39;;;;;;;38.20;20.30;;;;;;;;;;5018079;28;20119;-69
2021/03/24 09:41:17;;;;;;;42.78;20.40;;;;;;;;;;5017926;28;20550;-68
2021/03/24 09:43:44;;;;;;;40.38;20.88;;;;;;;;;;5017242;28;20055;-69
2021/03/24 09:46:17;;;;;;;36.90;19.33;;;;;;;;;;5003576;28;20166;-68
2021/03/24 09:48:51;;;;;;;38.47;19.33;;;;;;;;;;5019841;28;20095;-69
2021/03/24 09:51:20;;;;;;;41.95;19.80;;;;;;;;;;5020376;28;20033;-70
2021/03/24 09:53:47;;;;;;;41.10;19.35;;;;;;;;;;5001181;28;20084;-68
2021/03/24 09:56:20;;;;;;;40.78;17.77;;;;;;;;;;5018683;28;20687;-68
2021/03/24 09:58:48;;;;;;;38.05;19.67;;;;;;;;;;5024181;28;20039;-69
2021/03/24 10:01:22;;;;;;;38.90;18.90;;;;;;;;;;5021280;28;20082;-69
2021/03/24 10:03:47;;;;;;;38.00;18.70;;;;;;;;;;5020840;28;20497;-68
2021/03/24 10:06:22;;;;;;;40.90;18.55;;;;;;;;;;5018618;28;20033;-65
2021/03/24 10:08:50;;;;;;;32.83;17.42;;;;;;;;;;5034512;28;20113;-70
2021/03/24 10:11:24;;;;;;;39.58;18.30;;;;;;;;;;5020910;28;20143;-69
2021/03/24 10:13:59;;;;;;;34.53;17.25;;;;;;;;;;5018267;28;20037;-69
2021/03/24 10:16:28;;;;;;;34.50;17.88;;;;;;;;;;5017138;28;20028;-68
2021/03/24 10:19:12;;;;;;;35.90;18.90;;;;;;;;;;5005690;28;20096;-67
2021/03/24 10:21:39;;;;;;;33.80;17.90;;;;;;;;;;5016261;28;20034;-70
2021/03/24 10:24:11;;;;;;;36.03;18.42;;;;;;;;;;5014100;28;20068;-69
2021/03/24 10:26:45;;;;;;;39.97;18.52;;;;;;;;;;5023331;28;20048;-69
2021/03/24 10:29:15;;;;;;;38.08;18.98;;;;;;;;;;5005161;28;21017;-69
2021/03/24 10:31:50;;;;;;;42.30;18.90;;;;;;;;;;4999836;28;20363;-69
2021/03/24 10:34:18;;;;;;;35.55;19.15;;;;;;;;;;5018650;28;20079;-68
2021/03/24 10:36:43;;;;;;;34.78;18.98;;;;;;;;;;5016600;28;20120;-68
2021/03/24 10:39:15;;;;;;;30.73;17.20;;;;;;;;;;5018054;28;20030;-69
2021/03/24 10:41:44;;;;;;;31.63;18.00;;;;;;;;;;5022377;28;20064;-68
2021/03/24 10:44:16;;;;;;;31.85;18.50;;;;;;;;;;5014585;28;20044;-70
2021/03/24 10:46:58;;;;;;;33.17;17.92;;;;;;;;;;5017906;28;20060;-68
2021/03/24 10:49:27;;;;;;;32.60;17.48;;;;;;;;;;5015359;28;20033;-66
2021/03/24 10:51:53;;;;;;;32.67;16.95;;;;;;;;;;5006171;28;20139;-69
2021/03/24 10:54:27;;;;;;;33.05;17.20;;;;;;;;;;5017450;28;20034;-68
2021/03/24 10:56:55;;;;;;;34.35;17.65;;;;;;;;;;5017431;28;20041;-68
2021/03/24 10:59:29;;;;;;;33.47;17.10;;;;;;;;;;5017229;28;20028;-68
2021/03/24 11:01:56;;;;;;;29.80;17.37;;;;;;;;;;5015395;28;20060;-68
2021/03/24 11:04:24;;;;;;;29.33;17.45;;;;;;;;;;5012696;28;20294;-68
2021/03/24 11:07:11;;;;;;;30.20;16.80;;;;;;;;;;5015994;28;20037;-68
2021/03/24 11:09:56;;;;;;;32.65;18.13;;;;;;;;;;5014040;28;20044;-68
2021/03/24 11:12:33;;;;;;;30.40;16.13;;;;;;;;;;5003233;28;20125;-68
2021/03/24 11:15:15;;;;;;;30.02;16.35;;;;;;;;;;5020287;28;20141;-67
2021/03/24 11:17:43;;;;;;;25.33;14.68;;;;;;;;;;5014870;28;20118;-68
2021/03/24 11:20:35;;;;;;;28.85;15.52;;;;;;;;;;5014728;28;20081;-69
2021/03/24 11:23:06;;;;;;;30.37;14.80;;;;;;;;;;5022746;28;20025;-67
2021/03/24 11:25:37;;;;;;;31.40;14.63;;;;;;;;;;5017127;28;20152;-67
2021/03/24 11:28:04;;;;;;;24.65;13.48;;;;;;;;;;5017622;28;20070;-69
2021/03/24 11:30:36;;;;;;;28.75;14.55;;;;;;;;;;5018404;28;20071;-67
2021/03/24 11:33:01;;;;;;;23.10;12.98;;;;;;;;;;5014300;28;20182;-68
2021/03/24 11:35:44;;;;;;;22.00;12.13;;;;;;;;;;5017475;28;20465;-68
2021/03/24 11:38:20;;;;;;;21.85;12.98;;;;;;;;;;5018523;28;20107;-69
2021/03/24 11:40:54;;;;;;;23.63;12.90;;;;;;;;;;5017789;28;20052;-68
2021/03/24 11:43:22;;;;;;;22.35;12.55;;;;;;;;;;5012980;28;20033;-67
2021/03/24 11:45:52;;;;;;;23.67;11.30;;;;;;;;;;5013334;28;20087;-69
2021/03/24 11:48:32;;;;;;;23.33;13.10;;;;;;;;;;5017090;28;20045;-68
2021/03/24 11:51:20;;;;;;;21.17;10.95;;;;;;;;;;5015811;28;20127;-69
2021/03/24 11:54:07;;;;;;;20.13;11.23;;;;;;;;;;5016094;28;20084;-70
2021/03/24 11:56:43;;;;;;;21.40;10.95;;;;;;;;;;5016464;28;20121;-68
2021/03/24 11:59:14;;;;;;;23.90;10.70;;;;;;;;;;5012767;28;20116;-69
2021/03/24 12:01:49;;;;;;;17.60;10.20;;;;;;;;;;5016047;28;20641;-70
2021/03/24 12:04:21;;;;;;;19.58;11.25;;;;;;;;;;5019561;28;20087;-68
2021/03/24 12:06:49;;;;;;;18.30;10.52;;;;;;;;;;5027087;28;20191;-69
2021/03/24 12:09:36;;;;;;;18.25;10.05;;;;;;;;;;5015721;28;20026;-67
2021/03/24 12:12:04;;;;;;;20.70;10.88;;;;;;;;;;5016664;28;20346;-68
2021/03/24 12:14:35;;;;;;;17.45;9.80;;;;;;;;;;5020021;28;21858;-67
2021/03/24 12:17:02;;;;;;;18.52;10.15;;;;;;;;;;5015596;28;20068;-68
2021/03/24 12:19:38;;;;;;;18.33;10.88;;;;;;;;;;5020857;28;20039;-67
2021/03/24 12:22:22;;;;;;;18.77;10.15;;;;;;;;;;5025534;28;20041;-68
2021/03/24 12:24:59;;;;;;;20.50;10.73;;;;;;;;;;5017345;28;20029;-67
2021/03/24 12:27:29;;;;;;;16.67;10.95;;;;;;;;;;5014007;28;20048;-66
2021/03/24 12:30:16;;;;;;;19.45;9.60;;;;;;;;;;5021025;28;20100;-69
2021/03/24 12:32:45;;;;;;;19.80;11.05;;;;;;;;;;5016193;28;20953;-69
2021/03/24 12:35:21;;;;;;;15.95;9.50;;;;;;;;;;5017526;28;20672;-69
2021/03/24 12:37:50;;;;;;;14.82;10.02;;;;;;;;;;5018018;28;20152;-67
2021/03/24 12:40:19;;;;;;;17.45;9.20;;;;;;;;;;5021297;28;20041;-68
2021/03/24 12:42:47;;;;;;;17.27;9.57;;;;;;;;;;5005013;28;20136;-68
2021/03/24 12:45:28;;;;;;;20.50;9.63;;;;;;;;;;5015592;28;20034;-69
2021/03/24 12:48:03;;;;;;;15.10;8.98;;;;;;;;;;5018807;28;20067;-67
2021/03/24 12:50:34;;;;;;;12.43;8.05;;;;;;;;;;5004742;28;20045;-66
2021/03/24 12:53:05;;;;;;;15.88;7.88;;;;;;;;;;5019218;28;20038;-67
2021/03/24 12:55:31;;;;;;;14.52;9.65;;;;;;;;;;5019976;28;20026;-67
2021/03/24 12:58:06;;;;;;;17.60;10.13;;;;;;;;;;5008587;28;20488;-67
2021/03/24 13:00:43;;;;;;;19.13;9.75;;;;;;;;;;5019401;28;20032;-66
2021/03/24 13:03:28;;;;;;;16.45;8.55;;;;;;;;;;5018362;28;20231;-66
2021/03/24 13:06:16;;;;;;;16.42;8.90;;;;;;;;;;5021514;28;20965;-65
2021/03/24 13:09:03;;;;;;;16.75;8.98;;;;;;;;;;4991240;28;20074;-66
2021/03/24 13:11:34;;;;;;;15.10;9.25;;;;;;;;;;5019755;28;20075;-68
2021/03/24 13:14:18;;;;;;;19.70;9.98;;;;;;;;;;5020347;28;20057;-66
2021/03/24 13:16:49;;;;;;;16.02;8.65;;;;;;;;;;5023445;28;20037;-65
2021/03/24 13:19:34;;;;;;;14.45;8.63;;;;;;;;;;5018740;28;20040;-68
2021/03/24 13:22:22;;;;;;;16.88;8.70;;;;;;;;;;5021590;28;20076;-70
2021/03/24 13:24:55;;;;;;;14.63;8.48;;;;;;;;;;5024908;28;20969;-68
2021/03/24 13:27:41;;;;;;;16.08;8.90;;;;;;;;;;5020755;28;20037;-68
2021/03/24 13:30:25;;;;;;;18.30;9.45;;;;;;;;;;5018702;28;20075;-69
2021/03/24 13:32:52;;;;;;;15.45;8.68;;;;;;;;;;5020242;28;20538;-69
2021/03/24 13:35:29;;;;;;;17.20;9.38;;;;;;;;;;5020809;28;20059;-65
2021/03/24 13:37:58;;;;;;;21.15;10.25;;;;;;;;;;5018886;28;21005;-68
2021/03/24 13:40:30;;;;;;;16.17;10.50;;;;;;;;;;5018348;28;20334;-68
2021/03/24 13:43:01;;;;;;;20.17;11.55;;;;;;;;;;5017767;28;20384;-66
2021/03/24 13:45:26;;;;;;;19.70;10.88;;;;;;;;;;5022953;28;20072;-67
2021/03/24 13:47:54;;;;;;;17.60;10.40;;;;;;;;;;4999790;28;20127;-65
2021/03/24 13:50:20;;;;;;;16.70;10.27;;;;;;;;;;5020531;28;20025;-66
2021/03/24 13:52:48;;;;;;;24.73;10.90;;;;;;;;;;5016394;28;20552;-68
2021/03/24 13:55:17;;;;;;;20.85;11.00;;;;;;;;;;5018984;28;20039;-67
2021/03/24 13:57:43;;;;;;;18.95;11.65;;;;;;;;;;5015844;28;20125;-67
2021/03/24 14:00:14;;;;;;;21.75;11.88;;;;;;;;;;5020637;28;20366;-68
2021/03/24 14:03:02;;;;;;;24.98;12.32;;;;;;;;;;5018149;28;20053;-66
2021/03/24 14:05:42;;;;;;;22.95;12.10;;;;;;;;;;5020327;28;20046;-66
2021/03/24 14:08:14;;;;;;;21.30;11.63;;;;;;;;;;5020229;28;20506;-64
2021/03/24 14:10:43;;;;;;;18.30;12.13;;;;;;;;;;5016622;28;20033;-65
2021/03/24 14:13:18;;;;;;;24.85;12.50;;;;;;;;;;5014725;28;20045;-69
2021/03/24 14:16:06;;;;;;;18.67;10.95;;;;;;;;;;5018286;28;20077;-69
2021/03/24 14:18:32;;;;;;;;;;;;;;;;;;5020857;28;20025;-67
2021/03/24 14:20:59;;;;;;;24.10;12.65;;;;;;;;;;5020908;28;19948;-66
2021/03/24 14:23:46;;;;;;;26.35;12.98;;;;;;;;;;5016486;28;20036;-67
2021/03/24 14:26:19;;;;;;;25.48;13.02;;;;;;;;;;5018604;28;21717;-68
2021/03/24 14:28:48;;;;;;;27.00;12.75;;;;;;;;;;5012479;28;20056;-68
2021/03/24 14:31:34;;;;;;;30.48;12.32;;;;;;;;;;5021038;28;20476;-69
2021/03/24 14:34:08;;;;;;;24.40;12.82;;;;;;;;;;5015533;28;20049;-66
2021/03/24 14:36:51;;;;;;;24.80;12.98;;;;;;;;;;5019923;28;20041;-67
2021/03/24 14:39:16;;;;;;;25.95;13.48;;;;;;;;;;5020562;28;20865;-65
2021/03/24 14:42:05;;;;;;;26.67;12.25;;;;;;;;;;5020640;28;20028;-67
2021/03/24 14:44:31;;;;;;;24.48;12.18;;;;;;;;;;5018338;28;20036;-67
2021/03/24 14:47:13;;;;;;;23.60;12.23;;;;;;;;;;5016752;28;20037;-65
2021/03/24 14:49:44;;;;;;;32.72;13.65;;;;;;;;;;4999504;28;20032;-68
2021/03/24 14:52:23;;;;;;;25.73;13.45;;;;;;;;;;5017221;28;20033;-67
2021/03/24 14:54:55;;;;;;;25.13;13.02;;;;;;;;;;5018115;28;20083;-66